sensor_id;sensor_type;location;lat;lon;timestamp;P1;durP1;ratioP1;P2;durP2;ratioP2
13349;SDS011;6744;53.190;6.576;2023-10-09T00:00:24;2.17;;;1.90;;
13349;SDS011;6744;53.190;6.576;2023-10-09T00:02:59;2.67;;;1.80;;
13349;SDS011;6744;53.190;6.576;2023-10-09T00:05:29;2.50;;;1.90;;
13349;SDS011;6744;53.190;6.576;2023-10-09T00:08:10;2.80;;;2.17;;
13349;SDS011;6744;53.190;6.576;2023-10-09T00:10:52;4.03;;;2.30;;
13349;SDS011;6744;53.190;6.576;2023-10-09T00:13:21;3.33;;;2.27;;
13349;SDS011;6744;53.190;6.576;2023-10-09T00:15:55;2.93;;;2.60;;
13349;SDS011;6744;53.190;6.576;2023-10-09T00:18:25;2.93;;;2.30;;
13349;SDS011;6744;53.190;6.576;2023-10-09T00:20:55;3.97;;;2.30;;
13349;SDS011;6744;53.190;6.576;2023-10-09T00:23:25;4.40;;;2.30;;
13349;SDS011;6744;53.190;6.576;2023-10-09T00:25:51;4.20;;;2.60;;
13349;SDS011;6744;53.190;6.576;2023-10-09T00:28:41;3.20;;;2.60;;
13349;SDS011;6744;53.190;6.576;2023-10-09T00:31:09;3.73;;;2.60;;
13349;SDS011;6744;53.190;6.576;2023-10-09T00:33:40;3.40;;;2.50;;
13349;SDS011;6744;53.190;6.576;2023-10-09T00:36:07;2.63;;;2.30;;
13349;SDS011;6744;53.190;6.576;2023-10-09T00:38:39;3.20;;;2.30;;
13349;SDS011;6744;53.190;6.576;2023-10-09T00:41:15;3.97;;;2.50;;
13349;SDS011;6744;53.190;6.576;2023-10-09T00:43:54;4.80;;;2.83;;
13349;SDS011;6744;53.190;6.576;2023-10-09T00:46:24;3.43;;;2.57;;
13349;SDS011;6744;53.190;6.576;2023-10-09T00:48:51;4.13;;;2.80;;
13349;SDS011;6744;53.190;6.576;2023-10-09T00:51:21;5.03;;;3.60;;
13349;SDS011;6744;53.190;6.576;2023-10-09T00:53:49;5.30;;;3.30;;
13349;SDS011;6744;53.190;6.576;2023-10-09T00:56:20;4.20;;;3.27;;
13349;SDS011;6744;53.190;6.576;2023-10-09T00:58:52;3.10;;;2.73;;
13349;SDS011;6744;53.190;6.576;2023-10-09T01:01:25;3.50;;;2.83;;
13349;SDS011;6744;53.190;6.576;2023-10-09T01:03:59;4.50;;;3.27;;
13349;SDS011;6744;53.190;6.576;2023-10-09T01:06:24;3.63;;;3.00;;
13349;SDS011;6744;53.190;6.576;2023-10-09T01:08:53;4.40;;;3.17;;
13349;SDS011;6744;53.190;6.576;2023-10-09T01:11:32;5.30;;;3.70;;
13349;SDS011;6744;53.190;6.576;2023-10-09T01:13:57;5.47;;;3.40;;
13349;SDS011;6744;53.190;6.576;2023-10-09T01:16:40;5.80;;;4.17;;
13349;SDS011;6744;53.190;6.576;2023-10-09T01:19:09;5.10;;;3.80;;
13349;SDS011;6744;53.190;6.576;2023-10-09T01:21:44;5.93;;;4.40;;
13349;SDS011;6744;53.190;6.576;2023-10-09T01:24:10;7.23;;;4.80;;
13349;SDS011;6744;53.190;6.576;2023-10-09T01:26:36;6.07;;;4.47;;
13349;SDS011;6744;53.190;6.576;2023-10-09T01:29:23;7.00;;;4.33;;
13349;SDS011;6744;53.190;6.576;2023-10-09T01:31:53;6.47;;;4.60;;
13349;SDS011;6744;53.190;6.576;2023-10-09T01:34:33;6.60;;;4.27;;
13349;SDS011;6744;53.190;6.576;2023-10-09T01:37:10;6.43;;;4.90;;
13349;SDS011;6744;53.190;6.576;2023-10-09T01:39:48;7.87;;;5.17;;
13349;SDS011;6744;53.190;6.576;2023-10-09T01:42:15;7.83;;;4.60;;
13349;SDS011;6744;53.190;6.576;2023-10-09T01:45:02;6.20;;;4.70;;
13349;SDS011;6744;53.190;6.576;2023-10-09T01:47:51;7.00;;;5.30;;
13349;SDS011;6744;53.190;6.576;2023-10-09T01:50:17;6.33;;;4.83;;
13349;SDS011;6744;53.190;6.576;2023-10-09T01:52:47;7.87;;;5.63;;
13349;SDS011;6744;53.190;6.576;2023-10-09T01:55:13;7.17;;;5.10;;
13349;SDS011;6744;53.190;6.576;2023-10-09T01:57:52;10.10;;;6.13;;
13349;SDS011;6744;53.190;6.576;2023-10-09T02:00:17;9.47;;;6.33;;
13349;SDS011;6744;53.190;6.576;2023-10-09T02:02:48;7.70;;;5.97;;
13349;SDS011;6744;53.190;6.576;2023-10-09T02:05:15;9.47;;;6.37;;
13349;SDS011;6744;53.190;6.576;2023-10-09T02:07:41;8.10;;;6.20;;
13349;SDS011;6744;53.190;6.576;2023-10-09T02:10:12;7.50;;;6.10;;
13349;SDS011;6744;53.190;6.576;2023-10-09T02:12:55;8.90;;;7.03;;
13349;SDS011;6744;53.190;6.576;2023-10-09T02:15:28;9.77;;;6.80;;
13349;SDS011;6744;53.190;6.576;2023-10-09T02:18:06;9.90;;;7.10;;
13349;SDS011;6744;53.190;6.576;2023-10-09T02:23:28;10.40;;;7.27;;
13349;SDS011;6744;53.190;6.576;2023-10-09T02:26:12;10.47;;;7.50;;
13349;SDS011;6744;53.190;6.576;2023-10-09T02:28:52;10.30;;;7.27;;
13349;SDS011;6744;53.190;6.576;2023-10-09T02:31:25;11.53;;;7.30;;
13349;SDS011;6744;53.190;6.576;2023-10-09T02:34:09;11.03;;;8.37;;
13349;SDS011;6744;53.190;6.576;2023-10-09T02:36:35;11.97;;;8.27;;
13349;SDS011;6744;53.190;6.576;2023-10-09T02:39:13;11.60;;;8.13;;
13349;SDS011;6744;53.190;6.576;2023-10-09T02:41:48;11.67;;;8.60;;
13349;SDS011;6744;53.190;6.576;2023-10-09T02:44:31;11.40;;;8.93;;
13349;SDS011;6744;53.190;6.576;2023-10-09T02:47:04;11.00;;;8.23;;
13349;SDS011;6744;53.190;6.576;2023-10-09T02:49:31;11.13;;;8.67;;
13349;SDS011;6744;53.190;6.576;2023-10-09T02:51:56;11.20;;;8.80;;
13349;SDS011;6744;53.190;6.576;2023-10-09T02:54:21;11.37;;;8.77;;
13349;SDS011;6744;53.190;6.576;2023-10-09T02:56:47;12.70;;;9.07;;
13349;SDS011;6744;53.190;6.576;2023-10-09T02:59:20;13.43;;;9.07;;
13349;SDS011;6744;53.190;6.576;2023-10-09T03:01:47;12.07;;;9.20;;
13349;SDS011;6744;53.190;6.576;2023-10-09T03:04:12;12.63;;;9.50;;
13349;SDS011;6744;53.190;6.576;2023-10-09T03:06:39;15.83;;;10.73;;
13349;SDS011;6744;53.190;6.576;2023-10-09T03:09:17;12.87;;;10.20;;
13349;SDS011;6744;53.190;6.576;2023-10-09T03:11:44;15.90;;;11.63;;
13349;SDS011;6744;53.190;6.576;2023-10-09T03:14:13;14.90;;;11.27;;
13349;SDS011;6744;53.190;6.576;2023-10-09T03:16:39;13.63;;;10.60;;
13349;SDS011;6744;53.190;6.576;2023-10-09T03:19:04;14.13;;;10.70;;
13349;SDS011;6744;53.190;6.576;2023-10-09T03:21:29;13.33;;;10.87;;
13349;SDS011;6744;53.190;6.576;2023-10-09T03:23:55;13.67;;;10.47;;
13349;SDS011;6744;53.190;6.576;2023-10-09T03:26:21;13.80;;;10.60;;
13349;SDS011;6744;53.190;6.576;2023-10-09T03:28:50;13.17;;;10.80;;
13349;SDS011;6744;53.190;6.576;2023-10-09T03:31:17;16.00;;;11.97;;
13349;SDS011;6744;53.190;6.576;2023-10-09T03:33:43;14.83;;;12.20;;
13349;SDS011;6744;53.190;6.576;2023-10-09T03:36:08;16.10;;;12.63;;
13349;SDS011;6744;53.190;6.576;2023-10-09T03:38:36;16.73;;;12.83;;
13349;SDS011;6744;53.190;6.576;2023-10-09T03:41:03;16.30;;;12.77;;
13349;SDS011;6744;53.190;6.576;2023-10-09T03:43:33;18.30;;;13.00;;
13349;SDS011;6744;53.190;6.576;2023-10-09T03:46:03;14.27;;;11.77;;
13349;SDS011;6744;53.190;6.576;2023-10-09T03:48:30;17.83;;;13.30;;
13349;SDS011;6744;53.190;6.576;2023-10-09T03:51:01;16.10;;;12.43;;
13349;SDS011;6744;53.190;6.576;2023-10-09T03:53:34;15.77;;;12.40;;
13349;SDS011;6744;53.190;6.576;2023-10-09T03:56:02;17.00;;;13.07;;
13349;SDS011;6744;53.190;6.576;2023-10-09T03:58:37;14.90;;;11.90;;
13349;SDS011;6744;53.190;6.576;2023-10-09T04:01:14;15.57;;;12.53;;
13349;SDS011;6744;53.190;6.576;2023-10-09T04:03:56;17.70;;;13.00;;
13349;SDS011;6744;53.190;6.576;2023-10-09T04:06:25;16.30;;;13.40;;
13349;SDS011;6744;53.190;6.576;2023-10-09T04:09:00;15.47;;;12.53;;
13349;SDS011;6744;53.190;6.576;2023-10-09T04:11:39;15.97;;;12.73;;
13349;SDS011;6744;53.190;6.576;2023-10-09T04:14:08;16.07;;;13.63;;
13349;SDS011;6744;53.190;6.576;2023-10-09T04:16:51;14.07;;;12.17;;
13349;SDS011;6744;53.190;6.576;2023-10-09T04:19:16;15.33;;;11.97;;
13349;SDS011;6744;53.190;6.576;2023-10-09T04:21:47;14.70;;;12.10;;
13349;SDS011;6744;53.190;6.576;2023-10-09T04:24:13;15.60;;;13.93;;
13349;SDS011;6744;53.190;6.576;2023-10-09T04:26:42;16.73;;;13.13;;
13349;SDS011;6744;53.190;6.576;2023-10-09T04:29:15;15.13;;;12.30;;
13349;SDS011;6744;53.190;6.576;2023-10-09T04:31:51;17.63;;;14.13;;
13349;SDS011;6744;53.190;6.576;2023-10-09T04:34:23;14.60;;;12.23;;
13349;SDS011;6744;53.190;6.576;2023-10-09T04:36:59;16.23;;;13.30;;
13349;SDS011;6744;53.190;6.576;2023-10-09T04:39:40;18.40;;;13.57;;
13349;SDS011;6744;53.190;6.576;2023-10-09T04:42:35;16.73;;;13.33;;
13349;SDS011;6744;53.190;6.576;2023-10-09T04:45:04;14.03;;;12.40;;
13349;SDS011;6744;53.190;6.576;2023-10-09T04:47:33;17.90;;;12.93;;
13349;SDS011;6744;53.190;6.576;2023-10-09T04:50:15;16.27;;;12.83;;
13349;SDS011;6744;53.190;6.576;2023-10-09T04:52:44;16.83;;;12.67;;
13349;SDS011;6744;53.190;6.576;2023-10-09T04:55:09;17.07;;;12.73;;
13349;SDS011;6744;53.190;6.576;2023-10-09T04:57:38;19.33;;;14.87;;
13349;SDS011;6744;53.190;6.576;2023-10-09T05:00:14;17.13;;;12.23;;
13349;SDS011;6744;53.190;6.576;2023-10-09T05:02:53;13.73;;;11.47;;
13349;SDS011;6744;53.190;6.576;2023-10-09T05:05:23;16.17;;;12.80;;
13349;SDS011;6744;53.190;6.576;2023-10-09T05:08:08;15.67;;;12.23;;
13349;SDS011;6744;53.190;6.576;2023-10-09T05:10:52;14.27;;;11.10;;
13349;SDS011;6744;53.190;6.576;2023-10-09T05:16:05;15.83;;;12.90;;
13349;SDS011;6744;53.190;6.576;2023-10-09T05:18:43;13.07;;;11.73;;
13349;SDS011;6744;53.190;6.576;2023-10-09T05:21:10;15.10;;;12.13;;
13349;SDS011;6744;53.190;6.576;2023-10-09T05:23:54;16.20;;;13.30;;
13349;SDS011;6744;53.190;6.576;2023-10-09T05:26:41;14.57;;;12.27;;
13349;SDS011;6744;53.190;6.576;2023-10-09T05:29:11;14.23;;;11.83;;
13349;SDS011;6744;53.190;6.576;2023-10-09T05:31:55;13.50;;;11.70;;
13349;SDS011;6744;53.190;6.576;2023-10-09T05:34:22;13.43;;;10.77;;
13349;SDS011;6744;53.190;6.576;2023-10-09T05:36:48;15.33;;;11.40;;
13349;SDS011;6744;53.190;6.576;2023-10-09T05:39:16;16.20;;;11.53;;
13349;SDS011;6744;53.190;6.576;2023-10-09T05:42:05;14.67;;;10.80;;
13349;SDS011;6744;53.190;6.576;2023-10-09T05:44:34;17.37;;;10.87;;
13349;SDS011;6744;53.190;6.576;2023-10-09T05:47:18;14.17;;;9.93;;
13349;SDS011;6744;53.190;6.576;2023-10-09T05:50:08;12.97;;;10.07;;
13349;SDS011;6744;53.190;6.576;2023-10-09T05:52:54;11.47;;;9.50;;
13349;SDS011;6744;53.190;6.576;2023-10-09T05:55:21;14.03;;;8.90;;
13349;SDS011;6744;53.190;6.576;2023-10-09T05:57:53;10.97;;;8.80;;
13349;SDS011;6744;53.190;6.576;2023-10-09T06:00:22;10.70;;;8.47;;
13349;SDS011;6744;53.190;6.576;2023-10-09T06:03:07;10.97;;;8.50;;
13349;SDS011;6744;53.190;6.576;2023-10-09T06:05:45;10.77;;;8.80;;
13349;SDS011;6744;53.190;6.576;2023-10-09T06:08:30;9.40;;;7.23;;
13349;SDS011;6744;53.190;6.576;2023-10-09T06:11:09;12.67;;;7.73;;
13349;SDS011;6744;53.190;6.576;2023-10-09T06:13:57;12.33;;;8.13;;
13349;SDS011;6744;53.190;6.576;2023-10-09T06:16:30;13.27;;;7.93;;
13349;SDS011;6744;53.190;6.576;2023-10-09T06:19:16;9.13;;;6.93;;
13349;SDS011;6744;53.190;6.576;2023-10-09T06:21:44;12.50;;;6.33;;
13349;SDS011;6744;53.190;6.576;2023-10-09T06:24:18;10.33;;;7.03;;
13349;SDS011;6744;53.190;6.576;2023-10-09T06:26:45;8.27;;;6.23;;
13349;SDS011;6744;53.190;6.576;2023-10-09T06:29:37;10.23;;;6.47;;
13349;SDS011;6744;53.190;6.576;2023-10-09T06:32:17;11.13;;;7.13;;
13349;SDS011;6744;53.190;6.576;2023-10-09T06:34:44;9.33;;;6.77;;
13349;SDS011;6744;53.190;6.576;2023-10-09T06:37:22;9.97;;;6.20;;
13349;SDS011;6744;53.190;6.576;2023-10-09T06:40:00;9.63;;;6.90;;
13349;SDS011;6744;53.190;6.576;2023-10-09T06:42:48;8.97;;;6.03;;
13349;SDS011;6744;53.190;6.576;2023-10-09T06:45:16;7.80;;;5.90;;
13349;SDS011;6744;53.190;6.576;2023-10-09T06:47:51;9.57;;;6.57;;
13349;SDS011;6744;53.190;6.576;2023-10-09T06:50:20;10.17;;;5.73;;
13349;SDS011;6744;53.190;6.576;2023-10-09T06:52:50;10.50;;;6.77;;
13349;SDS011;6744;53.190;6.576;2023-10-09T06:55:35;8.93;;;6.37;;
13349;SDS011;6744;53.190;6.576;2023-10-09T06:58:13;9.33;;;6.13;;
13349;SDS011;6744;53.190;6.576;2023-10-09T07:00:41;8.63;;;6.10;;
13349;SDS011;6744;53.190;6.576;2023-10-09T07:03:39;11.73;;;6.83;;
13349;SDS011;6744;53.190;6.576;2023-10-09T07:06:24;8.77;;;5.60;;
13349;SDS011;6744;53.190;6.576;2023-10-09T07:09:11;9.40;;;6.20;;
13349;SDS011;6744;53.190;6.576;2023-10-09T07:11:41;10.13;;;6.60;;
13349;SDS011;6744;53.190;6.576;2023-10-09T07:16:33;10.17;;;5.87;;
13349;SDS011;6744;53.190;6.576;2023-10-09T07:19:22;7.47;;;5.77;;
13349;SDS011;6744;53.190;6.576;2023-10-09T07:22:13;7.37;;;5.60;;
13349;SDS011;6744;53.190;6.576;2023-10-09T07:24:44;9.80;;;5.90;;
13349;SDS011;6744;53.190;6.576;2023-10-09T07:27:14;7.60;;;5.67;;
13349;SDS011;6744;53.190;6.576;2023-10-09T07:29:41;8.80;;;6.00;;
13349;SDS011;6744;53.190;6.576;2023-10-09T07:32:15;7.63;;;5.93;;
13349;SDS011;6744;53.190;6.576;2023-10-09T07:34:50;9.40;;;5.77;;
13349;SDS011;6744;53.190;6.576;2023-10-09T07:37:27;8.57;;;5.10;;
13349;SDS011;6744;53.190;6.576;2023-10-09T07:40:02;7.53;;;5.50;;
13349;SDS011;6744;53.190;6.576;2023-10-09T07:42:32;8.77;;;5.43;;
13349;SDS011;6744;53.190;6.576;2023-10-09T07:45:19;8.20;;;5.40;;
13349;SDS011;6744;53.190;6.576;2023-10-09T07:47:47;8.73;;;5.63;;
13349;SDS011;6744;53.190;6.576;2023-10-09T07:50:25;8.33;;;6.37;;
13349;SDS011;6744;53.190;6.576;2023-10-09T07:53:03;8.30;;;5.73;;
13349;SDS011;6744;53.190;6.576;2023-10-09T07:55:42;11.07;;;5.97;;
13349;SDS011;6744;53.190;6.576;2023-10-09T07:58:19;9.30;;;5.70;;
13349;SDS011;6744;53.190;6.576;2023-10-09T08:00:50;9.83;;;6.00;;
13349;SDS011;6744;53.190;6.576;2023-10-09T08:03:40;7.30;;;5.43;;
13349;SDS011;6744;53.190;6.576;2023-10-09T08:06:10;8.47;;;5.33;;
13349;SDS011;6744;53.190;6.576;2023-10-09T08:09:03;10.60;;;5.80;;
13349;SDS011;6744;53.190;6.576;2023-10-09T08:11:38;8.43;;;5.60;;
13349;SDS011;6744;53.190;6.576;2023-10-09T08:14:06;10.00;;;6.30;;
13349;SDS011;6744;53.190;6.576;2023-10-09T08:16:46;7.80;;;5.27;;
13349;SDS011;6744;53.190;6.576;2023-10-09T08:19:12;10.07;;;6.10;;
13349;SDS011;6744;53.190;6.576;2023-10-09T08:22:06;9.23;;;5.50;;
13349;SDS011;6744;53.190;6.576;2023-10-09T08:24:50;8.83;;;5.47;;
13349;SDS011;6744;53.190;6.576;2023-10-09T08:30:13;6.23;;;5.07;;
13349;SDS011;6744;53.190;6.576;2023-10-09T08:32:42;8.60;;;5.57;;
13349;SDS011;6744;53.190;6.576;2023-10-09T08:35:11;9.20;;;5.43;;
13349;SDS011;6744;53.190;6.576;2023-10-09T08:37:57;7.57;;;5.00;;
13349;SDS011;6744;53.190;6.576;2023-10-09T08:40:33;10.40;;;5.80;;
13349;SDS011;6744;53.190;6.576;2023-10-09T08:43:13;10.10;;;5.90;;
13349;SDS011;6744;53.190;6.576;2023-10-09T08:45:46;8.43;;;5.83;;
13349;SDS011;6744;53.190;6.576;2023-10-09T08:48:13;11.77;;;6.00;;
13349;SDS011;6744;53.190;6.576;2023-10-09T08:50:43;9.23;;;6.10;;
13349;SDS011;6744;53.190;6.576;2023-10-09T08:53:13;7.80;;;5.37;;
13349;SDS011;6744;53.190;6.576;2023-10-09T08:55:39;10.60;;;5.40;;
13349;SDS011;6744;53.190;6.576;2023-10-09T08:58:05;8.27;;;5.90;;
13349;SDS011;6744;53.190;6.576;2023-10-09T09:00:39;10.07;;;5.77;;
13349;SDS011;6744;53.190;6.576;2023-10-09T09:03:08;8.33;;;5.10;;
13349;SDS011;6744;53.190;6.576;2023-10-09T09:05:33;9.87;;;5.73;;
13349;SDS011;6744;53.190;6.576;2023-10-09T09:08:01;7.63;;;5.13;;
13349;SDS011;6744;53.190;6.576;2023-10-09T09:10:30;9.57;;;4.90;;
13349;SDS011;6744;53.190;6.576;2023-10-09T09:13:03;7.17;;;5.30;;
13349;SDS011;6744;53.190;6.576;2023-10-09T09:15:29;9.33;;;5.47;;
13349;SDS011;6744;53.190;6.576;2023-10-09T09:18:08;9.60;;;5.10;;
13349;SDS011;6744;53.190;6.576;2023-10-09T09:20:42;7.03;;;5.20;;
13349;SDS011;6744;53.190;6.576;2023-10-09T09:23:10;7.33;;;4.80;;
13349;SDS011;6744;53.190;6.576;2023-10-09T09:28:09;7.97;;;5.13;;
13349;SDS011;6744;53.190;6.576;2023-10-09T09:30:37;7.60;;;5.00;;
13349;SDS011;6744;53.190;6.576;2023-10-09T09:35:55;9.40;;;5.33;;
13349;SDS011;6744;53.190;6.576;2023-10-09T09:38:27;8.93;;;5.60;;
13349;SDS011;6744;53.190;6.576;2023-10-09T09:40:57;9.50;;;5.57;;
13349;SDS011;6744;53.190;6.576;2023-10-09T09:43:22;11.57;;;5.50;;
13349;SDS011;6744;53.190;6.576;2023-10-09T09:45:48;9.90;;;5.53;;
13349;SDS011;6744;53.190;6.576;2023-10-09T09:48:18;6.83;;;4.80;;
13349;SDS011;6744;53.190;6.576;2023-10-09T09:50:44;7.23;;;4.23;;
13349;SDS011;6744;53.190;6.576;2023-10-09T09:53:13;9.93;;;5.30;;
13349;SDS011;6744;53.190;6.576;2023-10-09T09:55:47;8.07;;;5.23;;
13349;SDS011;6744;53.190;6.576;2023-10-09T09:58:21;8.83;;;4.63;;
13349;SDS011;6744;53.190;6.576;2023-10-09T10:00:49;6.10;;;4.40;;
13349;SDS011;6744;53.190;6.576;2023-10-09T10:03:19;8.37;;;4.60;;
13349;SDS011;6744;53.190;6.576;2023-10-09T10:05:48;6.77;;;4.83;;
13349;SDS011;6744;53.190;6.576;2023-10-09T10:08:21;8.50;;;4.20;;
13349;SDS011;6744;53.190;6.576;2023-10-09T10:10:56;9.40;;;4.57;;
13349;SDS011;6744;53.190;6.576;2023-10-09T10:18:53;5.87;;;3.50;;
13349;SDS011;6744;53.190;6.576;2023-10-09T10:21:32;7.07;;;3.70;;
13349;SDS011;6744;53.190;6.576;2023-10-09T10:24:03;7.63;;;3.70;;
13349;SDS011;6744;53.190;6.576;2023-10-09T10:26:32;7.63;;;4.03;;
13349;SDS011;6744;53.190;6.576;2023-10-09T10:29:19;8.03;;;3.87;;
13349;SDS011;6744;53.190;6.576;2023-10-09T10:34:26;7.77;;;3.87;;
13349;SDS011;6744;53.190;6.576;2023-10-09T10:36:52;5.37;;;4.20;;
13349;SDS011;6744;53.190;6.576;2023-10-09T10:39:23;4.30;;;3.10;;
13349;SDS011;6744;53.190;6.576;2023-10-09T10:42:07;9.23;;;4.83;;
13349;SDS011;6744;53.190;6.576;2023-10-09T10:44:58;6.27;;;4.03;;
13349;SDS011;6744;53.190;6.576;2023-10-09T10:47:27;6.33;;;4.13;;
13349;SDS011;6744;53.190;6.576;2023-10-09T10:50:00;8.37;;;4.00;;
13349;SDS011;6744;53.190;6.576;2023-10-09T10:53:11;8.63;;;4.53;;
13349;SDS011;6744;53.190;6.576;2023-10-09T10:55:58;9.00;;;4.40;;
13349;SDS011;6744;53.190;6.576;2023-10-09T10:58:53;8.00;;;4.67;;
13349;SDS011;6744;53.190;6.576;2023-10-09T11:01:37;11.23;;;4.77;;
13349;SDS011;6744;53.190;6.576;2023-10-09T11:04:34;6.13;;;4.30;;
13349;SDS011;6744;53.190;6.576;2023-10-09T11:07:10;6.17;;;3.93;;
13349;SDS011;6744;53.190;6.576;2023-10-09T11:09:48;9.80;;;4.03;;
13349;SDS011;6744;53.190;6.576;2023-10-09T11:12:23;9.33;;;4.57;;
13349;SDS011;6744;53.190;6.576;2023-10-09T11:14:49;8.53;;;4.10;;
13349;SDS011;6744;53.190;6.576;2023-10-09T11:17:34;11.67;;;4.70;;
13349;SDS011;6744;53.190;6.576;2023-10-09T11:20:01;5.83;;;3.93;;
13349;SDS011;6744;53.190;6.576;2023-10-09T11:22:52;6.90;;;4.47;;
13349;SDS011;6744;53.190;6.576;2023-10-09T11:25:39;12.10;;;5.27;;
13349;SDS011;6744;53.190;6.576;2023-10-09T11:31:11;9.17;;;4.30;;
13349;SDS011;6744;53.190;6.576;2023-10-09T11:33:46;6.07;;;4.20;;
13349;SDS011;6744;53.190;6.576;2023-10-09T11:36:19;7.50;;;4.10;;
13349;SDS011;6744;53.190;6.576;2023-10-09T11:39:06;6.97;;;3.63;;
13349;SDS011;6744;53.190;6.576;2023-10-09T11:42:00;7.73;;;3.40;;
13349;SDS011;6744;53.190;6.576;2023-10-09T11:47:04;5.17;;;3.40;;
13349;SDS011;6744;53.190;6.576;2023-10-09T11:49:47;6.47;;;3.40;;
13349;SDS011;6744;53.190;6.576;2023-10-09T11:52:22;7.13;;;4.33;;
13349;SDS011;6744;53.190;6.576;2023-10-09T11:55:00;7.53;;;3.27;;
13349;SDS011;6744;53.190;6.576;2023-10-09T11:57:27;6.60;;;3.13;;
13349;SDS011;6744;53.190;6.576;2023-10-09T12:00:00;5.07;;;3.10;;
13349;SDS011;6744;53.190;6.576;2023-10-09T12:02:26;8.00;;;3.53;;
13349;SDS011;6744;53.190;6.576;2023-10-09T12:04:52;8.40;;;3.57;;
13349;SDS011;6744;53.190;6.576;2023-10-09T12:07:20;8.73;;;4.10;;
13349;SDS011;6744;53.190;6.576;2023-10-09T12:09:47;6.93;;;3.83;;
13349;SDS011;6744;53.190;6.576;2023-10-09T12:12:13;7.00;;;3.43;;
13349;SDS011;6744;53.190;6.576;2023-10-09T12:14:39;7.20;;;3.80;;
13349;SDS011;6744;53.190;6.576;2023-10-09T12:17:04;6.17;;;3.70;;
13349;SDS011;6744;53.190;6.576;2023-10-09T12:19:31;4.90;;;3.10;;
13349;SDS011;6744;53.190;6.576;2023-10-09T12:21:58;4.33;;;2.60;;
13349;SDS011;6744;53.190;6.576;2023-10-09T12:24:25;6.07;;;2.80;;
13349;SDS011;6744;53.190;6.576;2023-10-09T12:26:51;4.60;;;2.70;;
13349;SDS011;6744;53.190;6.576;2023-10-09T12:29:18;3.27;;;2.87;;
13349;SDS011;6744;53.190;6.576;2023-10-09T12:31:44;5.90;;;3.10;;
13349;SDS011;6744;53.190;6.576;2023-10-09T12:34:10;3.67;;;3.30;;
13349;SDS011;6744;53.190;6.576;2023-10-09T12:36:41;8.03;;;3.00;;
13349;SDS011;6744;53.190;6.576;2023-10-09T12:39:08;6.00;;;2.60;;
13349;SDS011;6744;53.190;6.576;2023-10-09T12:41:42;6.07;;;2.67;;
13349;SDS011;6744;53.190;6.576;2023-10-09T12:44:08;6.50;;;3.00;;
13349;SDS011;6744;53.190;6.576;2023-10-09T12:46:39;4.13;;;2.87;;
13349;SDS011;6744;53.190;6.576;2023-10-09T12:49:17;5.23;;;2.90;;
13349;SDS011;6744;53.190;6.576;2023-10-09T12:51:51;6.03;;;3.47;;
13349;SDS011;6744;53.190;6.576;2023-10-09T12:54:17;7.47;;;3.47;;
13349;SDS011;6744;53.190;6.576;2023-10-09T12:56:49;8.77;;;3.00;;
13349;SDS011;6744;53.190;6.576;2023-10-09T12:59:15;5.37;;;3.13;;
13349;SDS011;6744;53.190;6.576;2023-10-09T13:01:43;4.50;;;2.40;;
13349;SDS011;6744;53.190;6.576;2023-10-09T13:04:12;3.20;;;2.67;;
13349;SDS011;6744;53.190;6.576;2023-10-09T13:06:43;5.30;;;2.53;;
13349;SDS011;6744;53.190;6.576;2023-10-09T13:09:10;7.40;;;2.70;;
13349;SDS011;6744;53.190;6.576;2023-10-09T13:11:39;5.23;;;2.73;;
13349;SDS011;6744;53.190;6.576;2023-10-09T13:14:09;7.53;;;2.90;;
13349;SDS011;6744;53.190;6.576;2023-10-09T13:16:47;5.93;;;2.80;;
13349;SDS011;6744;53.190;6.576;2023-10-09T13:19:15;5.97;;;2.70;;
13349;SDS011;6744;53.190;6.576;2023-10-09T13:21:42;4.77;;;2.53;;
13349;SDS011;6744;53.190;6.576;2023-10-09T13:24:08;3.63;;;2.50;;
13349;SDS011;6744;53.190;6.576;2023-10-09T13:26:41;4.70;;;2.43;;
13349;SDS011;6744;53.190;6.576;2023-10-09T13:29:09;5.90;;;2.20;;
13349;SDS011;6744;53.190;6.576;2023-10-09T13:31:36;4.97;;;2.57;;
13349;SDS011;6744;53.190;6.576;2023-10-09T13:34:03;5.03;;;2.40;;
13349;SDS011;6744;53.190;6.576;2023-10-09T13:36:31;5.53;;;2.47;;
13349;SDS011;6744;53.190;6.576;2023-10-09T13:38:59;4.80;;;2.60;;
13349;SDS011;6744;53.190;6.576;2023-10-09T13:41:44;3.87;;;2.27;;
13349;SDS011;6744;53.190;6.576;2023-10-09T13:44:09;3.90;;;2.50;;
13349;SDS011;6744;53.190;6.576;2023-10-09T13:46:35;3.77;;;2.30;;
13349;SDS011;6744;53.190;6.576;2023-10-09T13:49:06;3.43;;;1.90;;
13349;SDS011;6744;53.190;6.576;2023-10-09T13:51:40;5.03;;;2.30;;
13349;SDS011;6744;53.190;6.576;2023-10-09T13:54:16;5.00;;;2.50;;
13349;SDS011;6744;53.190;6.576;2023-10-09T13:57:05;5.43;;;2.60;;
13349;SDS011;6744;53.190;6.576;2023-10-09T13:59:34;5.80;;;2.53;;
13349;SDS011;6744;53.190;6.576;2023-10-09T14:02:00;5.47;;;2.87;;
13349;SDS011;6744;53.190;6.576;2023-10-09T14:04:27;4.83;;;2.47;;
13349;SDS011;6744;53.190;6.576;2023-10-09T14:06:53;4.00;;;2.53;;
13349;SDS011;6744;53.190;6.576;2023-10-09T14:09:22;4.53;;;2.87;;
13349;SDS011;6744;53.190;6.576;2023-10-09T14:12:04;4.80;;;2.93;;
13349;SDS011;6744;53.190;6.576;2023-10-09T14:14:34;4.37;;;2.90;;
13349;SDS011;6744;53.190;6.576;2023-10-09T14:17:11;5.97;;;2.90;;
13349;SDS011;6744;53.190;6.576;2023-10-09T14:19:38;6.60;;;2.37;;
13349;SDS011;6744;53.190;6.576;2023-10-09T14:22:12;4.40;;;2.23;;
13349;SDS011;6744;53.190;6.576;2023-10-09T14:24:40;4.70;;;2.00;;
13349;SDS011;6744;53.190;6.576;2023-10-09T14:27:09;3.83;;;1.93;;
13349;SDS011;6744;53.190;6.576;2023-10-09T14:29:40;6.50;;;2.50;;
13349;SDS011;6744;53.190;6.576;2023-10-09T14:32:07;5.70;;;1.80;;
13349;SDS011;6744;53.190;6.576;2023-10-09T14:34:38;4.40;;;2.20;;
13349;SDS011;6744;53.190;6.576;2023-10-09T14:37:07;5.70;;;2.30;;
13349;SDS011;6744;53.190;6.576;2023-10-09T14:39:37;3.97;;;2.43;;
13349;SDS011;6744;53.190;6.576;2023-10-09T14:42:03;3.53;;;2.23;;
13349;SDS011;6744;53.190;6.576;2023-10-09T14:44:34;4.90;;;2.20;;
13349;SDS011;6744;53.190;6.576;2023-10-09T14:47:02;4.17;;;2.23;;
13349;SDS011;6744;53.190;6.576;2023-10-09T14:49:30;5.47;;;2.90;;
13349;SDS011;6744;53.190;6.576;2023-10-09T14:52:00;6.20;;;2.60;;
13349;SDS011;6744;53.190;6.576;2023-10-09T14:54:26;5.27;;;2.40;;
13349;SDS011;6744;53.190;6.576;2023-10-09T14:56:52;7.67;;;3.60;;
13349;SDS011;6744;53.190;6.576;2023-10-09T14:59:19;5.97;;;2.50;;
13349;SDS011;6744;53.190;6.576;2023-10-09T15:01:47;4.37;;;2.53;;
13349;SDS011;6744;53.190;6.576;2023-10-09T15:04:14;7.80;;;2.60;;
13349;SDS011;6744;53.190;6.576;2023-10-09T15:06:40;5.33;;;2.40;;
13349;SDS011;6744;53.190;6.576;2023-10-09T15:09:06;3.87;;;2.23;;
13349;SDS011;6744;53.190;6.576;2023-10-09T15:11:34;3.87;;;2.20;;
13349;SDS011;6744;53.190;6.576;2023-10-09T15:14:02;6.17;;;2.37;;
13349;SDS011;6744;53.190;6.576;2023-10-09T15:16:30;5.90;;;2.23;;
13349;SDS011;6744;53.190;6.576;2023-10-09T15:18:56;5.53;;;2.33;;
13349;SDS011;6744;53.190;6.576;2023-10-09T15:21:27;4.80;;;2.50;;
13349;SDS011;6744;53.190;6.576;2023-10-09T15:23:56;4.47;;;2.73;;
13349;SDS011;6744;53.190;6.576;2023-10-09T15:26:22;3.67;;;2.00;;
13349;SDS011;6744;53.190;6.576;2023-10-09T15:28:49;3.67;;;1.97;;
13349;SDS011;6744;53.190;6.576;2023-10-09T15:31:17;4.47;;;2.33;;
13349;SDS011;6744;53.190;6.576;2023-10-09T15:33:44;4.57;;;2.33;;
13349;SDS011;6744;53.190;6.576;2023-10-09T15:36:12;4.57;;;2.10;;
13349;SDS011;6744;53.190;6.576;2023-10-09T15:38:38;3.33;;;1.60;;
13349;SDS011;6744;53.190;6.576;2023-10-09T15:41:04;4.83;;;1.93;;
13349;SDS011;6744;53.190;6.576;2023-10-09T15:43:31;5.13;;;1.80;;
13349;SDS011;6744;53.190;6.576;2023-10-09T15:45:58;4.43;;;1.80;;
13349;SDS011;6744;53.190;6.576;2023-10-09T15:48:24;2.23;;;1.40;;
13349;SDS011;6744;53.190;6.576;2023-10-09T15:50:49;3.93;;;2.03;;
13349;SDS011;6744;53.190;6.576;2023-10-09T15:53:16;2.90;;;1.57;;
13349;SDS011;6744;53.190;6.576;2023-10-09T15:55:45;3.97;;;1.70;;
13349;SDS011;6744;53.190;6.576;2023-10-09T15:58:11;3.33;;;1.63;;